sensor_id;sensor_type;location;lat;lon;timestamp;temperature;humidity
8858;DHT22;4465;50.904;4.696;2023-05-16T00:01:47;9.50;99.90
8858;DHT22;4465;50.904;4.696;2023-05-16T00:04:13;9.50;99.90
8858;DHT22;4465;50.904;4.696;2023-05-16T00:06:41;9.50;99.90
8858;DHT22;4465;50.904;4.696;2023-05-16T00:09:10;9.50;99.90
8858;DHT22;4465;50.904;4.696;2023-05-16T00:11:35;9.50;99.90
8858;DHT22;4465;50.904;4.696;2023-05-16T00:14:06;9.50;99.90
8858;DHT22;4465;50.904;4.696;2023-05-16T00:16:32;9.40;99.90
8858;DHT22;4465;50.904;4.696;2023-05-16T00:18:58;9.40;99.90
8858;DHT22;4465;50.904;4.696;2023-05-16T00:21:25;9.30;99.90
8858;DHT22;4465;50.904;4.696;2023-05-16T00:23:53;9.30;99.90
8858;DHT22;4465;50.904;4.696;2023-05-16T00:26:19;9.30;99.90
8858;DHT22;4465;50.904;4.696;2023-05-16T00:28:48;9.20;99.90
8858;DHT22;4465;50.904;4.696;2023-05-16T00:31:14;9.20;99.90
8858;DHT22;4465;50.904;4.696;2023-05-16T00:33:40;9.20;99.90
8858;DHT22;4465;50.904;4.696;2023-05-16T00:36:06;9.10;99.90
8858;DHT22;4465;50.904;4.696;2023-05-16T00:38:34;9.10;99.90
8858;DHT22;4465;50.904;4.696;2023-05-16T00:41:03;9.10;99.90
8858;DHT22;4465;50.904;4.696;2023-05-16T00:43:33;9.00;99.90
8858;DHT22;4465;50.904;4.696;2023-05-16T00:45:59;9.00;99.90
8858;DHT22;4465;50.904;4.696;2023-05-16T00:48:25;9.00;99.90
8858;DHT22;4465;50.904;4.696;2023-05-16T00:50:54;9.00;99.90
8858;DHT22;4465;50.904;4.696;2023-05-16T00:53:23;8.90;99.90
8858;DHT22;4465;50.904;4.696;2023-05-16T00:55:50;8.90;99.90
8858;DHT22;4465;50.904;4.696;2023-05-16T00:58:17;8.80;99.90
8858;DHT22;4465;50.904;4.696;2023-05-16T01:00:44;8.80;99.90
8858;DHT22;4465;50.904;4.696;2023-05-16T01:03:12;8.80;99.90
8858;DHT22;4465;50.904;4.696;2023-05-16T01:05:43;8.80;99.90
8858;DHT22;4465;50.904;4.696;2023-05-16T01:08:09;8.80;99.90
8858;DHT22;4465;50.904;4.696;2023-05-16T01:10:43;8.70;99.90
8858;DHT22;4465;50.904;4.696;2023-05-16T01:13:40;8.70;99.90
8858;DHT22;4465;50.904;4.696;2023-05-16T01:16:26;8.60;99.90
8858;DHT22;4465;50.904;4.696;2023-05-16T01:21:47;8.60;99.90
8858;DHT22;4465;50.904;4.696;2023-05-16T01:24:32;8.60;99.90
8858;DHT22;4465;50.904;4.696;2023-05-16T01:26:58;8.50;99.90
8858;DHT22;4465;50.904;4.696;2023-05-16T01:29:27;8.50;99.90
8858;DHT22;4465;50.904;4.696;2023-05-16T01:31:55;8.50;99.90
8858;DHT22;4465;50.904;4.696;2023-05-16T01:34:22;8.50;99.90
8858;DHT22;4465;50.904;4.696;2023-05-16T01:39:34;8.40;99.90
8858;DHT22;4465;50.904;4.696;2023-05-16T01:44:36;8.30;99.90
8858;DHT22;4465;50.904;4.696;2023-05-16T01:47:12;8.40;99.90
8858;DHT22;4465;50.904;4.696;2023-05-16T01:50:06;8.30;99.90
8858;DHT22;4465;50.904;4.696;2023-05-16T01:52:52;8.30;99.90
8858;DHT22;4465;50.904;4.696;2023-05-16T01:55:46;8.20;99.90
8858;DHT22;4465;50.904;4.696;2023-05-16T01:58:17;8.20;99.90
8858;DHT22;4465;50.904;4.696;2023-05-16T02:00:43;8.20;99.90
8858;DHT22;4465;50.904;4.696;2023-05-16T02:03:09;8.20;99.90
8858;DHT22;4465;50.904;4.696;2023-05-16T02:05:35;8.20;99.90
8858;DHT22;4465;50.904;4.696;2023-05-16T02:08:01;8.10;99.90
8858;DHT22;4465;50.904;4.696;2023-05-16T02:10:27;8.10;99.90
8858;DHT22;4465;50.904;4.696;2023-05-16T02:12:56;8.10;99.90
8858;DHT22;4465;50.904;4.696;2023-05-16T02:15:22;8.10;99.90
8858;DHT22;4465;50.904;4.696;2023-05-16T02:17:48;8.00;99.90
8858;DHT22;4465;50.904;4.696;2023-05-16T02:20:14;8.00;99.90
8858;DHT22;4465;50.904;4.696;2023-05-16T02:22:42;8.00;99.90
8858;DHT22;4465;50.904;4.696;2023-05-16T02:25:09;8.00;99.90
8858;DHT22;4465;50.904;4.696;2023-05-16T02:27:37;8.00;99.90
8858;DHT22;4465;50.904;4.696;2023-05-16T02:30:03;8.00;99.90
8858;DHT22;4465;50.904;4.696;2023-05-16T02:32:31;7.90;99.90
8858;DHT22;4465;50.904;4.696;2023-05-16T02:34:57;7.90;99.90
8858;DHT22;4465;50.904;4.696;2023-05-16T02:37:22;7.90;99.90
8858;DHT22;4465;50.904;4.696;2023-05-16T02:39:48;7.90;99.90
8858;DHT22;4465;50.904;4.696;2023-05-16T02:42:16;7.90;99.90
8858;DHT22;4465;50.904;4.696;2023-05-16T02:44:45;7.90;99.90
8858;DHT22;4465;50.904;4.696;2023-05-16T02:47:10;7.80;99.90
8858;DHT22;4465;50.904;4.696;2023-05-16T02:49:38;7.80;99.90
8858;DHT22;4465;50.904;4.696;2023-05-16T02:52:05;7.80;99.90
8858;DHT22;4465;50.904;4.696;2023-05-16T02:54:33;7.80;99.90
8858;DHT22;4465;50.904;4.696;2023-05-16T02:57:01;7.80;99.90
8858;DHT22;4465;50.904;4.696;2023-05-16T02:59:27;7.80;99.90
8858;DHT22;4465;50.904;4.696;2023-05-16T03:01:53;7.70;99.90
8858;DHT22;4465;50.904;4.696;2023-05-16T03:04:19;7.80;99.90
8858;DHT22;4465;50.904;4.696;2023-05-16T03:06:48;7.70;99.90
8858;DHT22;4465;50.904;4.696;2023-05-16T03:09:16;7.70;99.90
8858;DHT22;4465;50.904;4.696;2023-05-16T03:11:42;7.70;99.90
8858;DHT22;4465;50.904;4.696;2023-05-16T03:14:08;7.70;99.90
8858;DHT22;4465;50.904;4.696;2023-05-16T03:16:36;7.60;99.90
8858;DHT22;4465;50.904;4.696;2023-05-16T03:19:04;7.60;99.90
8858;DHT22;4465;50.904;4.696;2023-05-16T03:21:32;7.60;99.90
8858;DHT22;4465;50.904;4.696;2023-05-16T03:23:58;7.60;99.90
8858;DHT22;4465;50.904;4.696;2023-05-16T03:26:24;7.60;99.90
8858;DHT22;4465;50.904;4.696;2023-05-16T03:28:52;7.50;99.90
8858;DHT22;4465;50.904;4.696;2023-05-16T03:31:18;7.50;99.90
8858;DHT22;4465;50.904;4.696;2023-05-16T03:33:46;7.50;99.90
8858;DHT22;4465;50.904;4.696;2023-05-16T03:36:15;7.50;99.90
8858;DHT22;4465;50.904;4.696;2023-05-16T03:38:41;7.50;99.90
8858;DHT22;4465;50.904;4.696;2023-05-16T03:41:09;7.50;99.90
8858;DHT22;4465;50.904;4.696;2023-05-16T03:43:35;7.50;99.90
8858;DHT22;4465;50.904;4.696;2023-05-16T03:46:01;7.50;99.90
8858;DHT22;4465;50.904;4.696;2023-05-16T03:48:27;7.40;99.90
8858;DHT22;4465;50.904;4.696;2023-05-16T03:50:55;7.40;99.90
8858;DHT22;4465;50.904;4.696;2023-05-16T03:53:21;7.40;99.90
8858;DHT22;4465;50.904;4.696;2023-05-16T03:55:48;7.40;99.90
8858;DHT22;4465;50.904;4.696;2023-05-16T03:58:15;7.40;99.90
8858;DHT22;4465;50.904;4.696;2023-05-16T04:00:41;7.40;99.90
8858;DHT22;4465;50.904;4.696;2023-05-16T04:03:11;7.40;99.90
8858;DHT22;4465;50.904;4.696;2023-05-16T04:05:37;7.50;99.90
8858;DHT22;4465;50.904;4.696;2023-05-16T04:08:05;7.40;99.90
8858;DHT22;4465;50.904;4.696;2023-05-16T04:10:31;7.40;99.90
8858;DHT22;4465;50.904;4.696;2023-05-16T04:12:59;7.40;99.90
8858;DHT22;4465;50.904;4.696;2023-05-16T04:15:25;7.40;99.90
8858;DHT22;4465;50.904;4.696;2023-05-16T04:17:50;7.40;99.90
8858;DHT22;4465;50.904;4.696;2023-05-16T04:20:16;7.40;99.90
8858;DHT22;4465;50.904;4.696;2023-05-16T04:22:42;7.40;99.90
8858;DHT22;4465;50.904;4.696;2023-05-16T04:25:08;7.40;99.90
8858;DHT22;4465;50.904;4.696;2023-05-16T04:27:35;7.40;99.90
8858;DHT22;4465;50.904;4.696;2023-05-16T04:30:01;7.40;99.90
8858;DHT22;4465;50.904;4.696;2023-05-16T04:32:27;7.40;99.90
8858;DHT22;4465;50.904;4.696;2023-05-16T04:34:56;7.40;99.90
8858;DHT22;4465;50.904;4.696;2023-05-16T04:37:21;7.40;99.90
8858;DHT22;4465;50.904;4.696;2023-05-16T04:39:50;7.40;99.90
8858;DHT22;4465;50.904;4.696;2023-05-16T04:42:17;7.50;99.90
8858;DHT22;4465;50.904;4.696;2023-05-16T04:44:43;7.50;99.90
8858;DHT22;4465;50.904;4.696;2023-05-16T04:47:09;7.50;99.90
8858;DHT22;4465;50.904;4.696;2023-05-16T04:49:37;7.50;99.90
8858;DHT22;4465;50.904;4.696;2023-05-16T04:52:05;7.60;99.90
8858;DHT22;4465;50.904;4.696;2023-05-16T04:54:33;7.60;99.90
8858;DHT22;4465;50.904;4.696;2023-05-16T04:56:59;7.60;99.90
8858;DHT22;4465;50.904;4.696;2023-05-16T04:59:26;7.70;99.90
8858;DHT22;4465;50.904;4.696;2023-05-16T05:01:52;7.80;99.90
8858;DHT22;4465;50.904;4.696;2023-05-16T05:04:18;7.80;99.90
8858;DHT22;4465;50.904;4.696;2023-05-16T05:06:47;7.80;99.90
8858;DHT22;4465;50.904;4.696;2023-05-16T05:09:13;7.90;99.90
8858;DHT22;4465;50.904;4.696;2023-05-16T05:11:39;7.90;99.90
8858;DHT22;4465;50.904;4.696;2023-05-16T05:14:05;8.00;99.90
8858;DHT22;4465;50.904;4.696;2023-05-16T05:16:33;8.00;99.90
8858;DHT22;4465;50.904;4.696;2023-05-16T05:18:59;8.10;99.90
8858;DHT22;4465;50.904;4.696;2023-05-16T05:21:27;8.20;99.90
8858;DHT22;4465;50.904;4.696;2023-05-16T05:23:55;8.20;99.90
8858;DHT22;4465;50.904;4.696;2023-05-16T05:26:21;8.30;99.90
8858;DHT22;4465;50.904;4.696;2023-05-16T05:28:48;8.40;99.90
8858;DHT22;4465;50.904;4.696;2023-05-16T05:31:14;8.50;99.90
8858;DHT22;4465;50.904;4.696;2023-05-16T05:33:39;8.60;99.90
8858;DHT22;4465;50.904;4.696;2023-05-16T05:36:07;8.70;99.90
8858;DHT22;4465;50.904;4.696;2023-05-16T05:38:33;8.80;99.90
8858;DHT22;4465;50.904;4.696;2023-05-16T05:40:59;8.90;99.90
8858;DHT22;4465;50.904;4.696;2023-05-16T05:43:25;8.90;99.90
8858;DHT22;4465;50.904;4.696;2023-05-16T05:45:51;9.00;99.90
8858;DHT22;4465;50.904;4.696;2023-05-16T05:48:17;9.10;99.90
8858;DHT22;4465;50.904;4.696;2023-05-16T05:50:43;9.20;99.90
8858;DHT22;4465;50.904;4.696;2023-05-16T05:53:09;9.30;99.90
8858;DHT22;4465;50.904;4.696;2023-05-16T05:55:35;9.40;99.90
8858;DHT22;4465;50.904;4.696;2023-05-16T05:58:03;9.50;99.90
8858;DHT22;4465;50.904;4.696;2023-05-16T06:00:29;9.60;99.90
8858;DHT22;4465;50.904;4.696;2023-05-16T06:02:57;9.70;99.90
8858;DHT22;4465;50.904;4.696;2023-05-16T06:05:23;9.70;99.90
8858;DHT22;4465;50.904;4.696;2023-05-16T06:07:54;9.80;99.90
8858;DHT22;4465;50.904;4.696;2023-05-16T06:10:20;9.90;99.90
8858;DHT22;4465;50.904;4.696;2023-05-16T06:12:48;10.00;99.90
8858;DHT22;4465;50.904;4.696;2023-05-16T06:15:16;10.10;99.90
8858;DHT22;4465;50.904;4.696;2023-05-16T06:17:42;10.30;99.90
8858;DHT22;4465;50.904;4.696;2023-05-16T06:20:08;10.40;99.90
8858;DHT22;4465;50.904;4.696;2023-05-16T06:22:34;10.50;99.90
8858;DHT22;4465;50.904;4.696;2023-05-16T06:25:00;10.60;99.90
8858;DHT22;4465;50.904;4.696;2023-05-16T06:27:28;10.80;99.90
8858;DHT22;4465;50.904;4.696;2023-05-16T06:29:57;10.90;99.90
8858;DHT22;4465;50.904;4.696;2023-05-16T06:32:23;11.00;99.90
8858;DHT22;4465;50.904;4.696;2023-05-16T06:34:49;11.10;99.90
8858;DHT22;4465;50.904;4.696;2023-05-16T06:37:15;11.20;99.90
8858;DHT22;4465;50.904;4.696;2023-05-16T06:39:41;11.40;99.90
8858;DHT22;4465;50.904;4.696;2023-05-16T06:42:09;11.60;99.90
8858;DHT22;4465;50.904;4.696;2023-05-16T06:44:35;11.70;99.90
8858;DHT22;4465;50.904;4.696;2023-05-16T06:47:03;11.80;99.90
8858;DHT22;4465;50.904;4.696;2023-05-16T06:49:29;11.90;99.90
8858;DHT22;4465;50.904;4.696;2023-05-16T06:51:55;12.00;99.90
8858;DHT22;4465;50.904;4.696;2023-05-16T06:54:21;12.10;99.90
8858;DHT22;4465;50.904;4.696;2023-05-16T06:56:49;12.10;99.90
8858;DHT22;4465;50.904;4.696;2023-05-16T06:59:15;12.20;99.90
8858;DHT22;4465;50.904;4.696;2023-05-16T07:01:41;12.40;99.90
8858;DHT22;4465;50.904;4.696;2023-05-16T07:04:07;12.50;99.90
8858;DHT22;4465;50.904;4.696;2023-05-16T07:06:33;12.60;99.90
8858;DHT22;4465;50.904;4.696;2023-05-16T07:08:59;12.70;99.90
8858;DHT22;4465;50.904;4.696;2023-05-16T07:11:26;12.80;99.90
8858;DHT22;4465;50.904;4.696;2023-05-16T07:13:52;12.80;99.90
8858;DHT22;4465;50.904;4.696;2023-05-16T07:16:20;12.90;99.90
8858;DHT22;4465;50.904;4.696;2023-05-16T07:18:46;12.90;99.90
8858;DHT22;4465;50.904;4.696;2023-05-16T07:21:12;13.00;99.90
8858;DHT22;4465;50.904;4.696;2023-05-16T07:23:38;13.20;99.90
8858;DHT22;4465;50.904;4.696;2023-05-16T07:26:07;13.30;99.90
8858;DHT22;4465;50.904;4.696;2023-05-16T07:28:32;13.50;99.90
8858;DHT22;4465;50.904;4.696;2023-05-16T07:30:58;13.60;99.90
8858;DHT22;4465;50.904;4.696;2023-05-16T07:33:29;13.70;99.90
8858;DHT22;4465;50.904;4.696;2023-05-16T07:35:55;13.80;99.90
8858;DHT22;4465;50.904;4.696;2023-05-16T07:38:24;13.90;99.90
8858;DHT22;4465;50.904;4.696;2023-05-16T07:40:50;14.00;99.90
8858;DHT22;4465;50.904;4.696;2023-05-16T07:43:18;14.10;99.90
8858;DHT22;4465;50.904;4.696;2023-05-16T07:45:44;14.10;99.90
8858;DHT22;4465;50.904;4.696;2023-05-16T07:48:10;14.10;99.90
8858;DHT22;4465;50.904;4.696;2023-05-16T07:50:38;14.20;99.90
8858;DHT22;4465;50.904;4.696;2023-05-16T07:53:04;14.10;99.90
8858;DHT22;4465;50.904;4.696;2023-05-16T07:55:30;14.10;99.90
8858;DHT22;4465;50.904;4.696;2023-05-16T07:57:56;14.00;99.90
8858;DHT22;4465;50.904;4.696;2023-05-16T08:00:24;14.00;99.90
8858;DHT22;4465;50.904;4.696;2023-05-16T08:02:51;14.00;99.90
8858;DHT22;4465;50.904;4.696;2023-05-16T08:05:18;13.90;99.90
8858;DHT22;4465;50.904;4.696;2023-05-16T08:07:43;13.90;99.90
8858;DHT22;4465;50.904;4.696;2023-05-16T08:10:09;13.90;99.90
8858;DHT22;4465;50.904;4.696;2023-05-16T08:12:38;13.80;99.90
8858;DHT22;4465;50.904;4.696;2023-05-16T08:15:04;13.70;99.90
8858;DHT22;4465;50.904;4.696;2023-05-16T08:17:31;13.70;99.90
8858;DHT22;4465;50.904;4.696;2023-05-16T08:19:57;13.80;99.90
8858;DHT22;4465;50.904;4.696;2023-05-16T08:22:24;13.90;99.90
8858;DHT22;4465;50.904;4.696;2023-05-16T08:24:50;14.20;99.90
8858;DHT22;4465;50.904;4.696;2023-05-16T08:27:16;14.40;99.90
8858;DHT22;4465;50.904;4.696;2023-05-16T08:29:45;14.60;99.90
8858;DHT22;4465;50.904;4.696;2023-05-16T08:32:11;14.80;99.90
8858;DHT22;4465;50.904;4.696;2023-05-16T08:34:37;15.00;99.90
8858;DHT22;4465;50.904;4.696;2023-05-16T08:37:03;15.20;99.90
8858;DHT22;4465;50.904;4.696;2023-05-16T08:39:31;15.40;99.90
8858;DHT22;4465;50.904;4.696;2023-05-16T08:41:57;15.50;99.90
8858;DHT22;4465;50.904;4.696;2023-05-16T08:44:23;15.60;99.90
8858;DHT22;4465;50.904;4.696;2023-05-16T08:46:51;15.60;99.90
8858;DHT22;4465;50.904;4.696;2023-05-16T08:49:20;15.60;99.90
8858;DHT22;4465;50.904;4.696;2023-05-16T08:51:47;15.70;99.90
8858;DHT22;4465;50.904;4.696;2023-05-16T08:54:16;15.70;99.90
8858;DHT22;4465;50.904;4.696;2023-05-16T08:56:45;15.70;99.90
8858;DHT22;4465;50.904;4.696;2023-05-16T08:59:20;15.80;99.90
8858;DHT22;4465;50.904;4.696;2023-05-16T09:01:46;15.80;99.90
8858;DHT22;4465;50.904;4.696;2023-05-16T09:04:12;15.70;99.90
8858;DHT22;4465;50.904;4.696;2023-05-16T09:06:38;15.60;99.90
8858;DHT22;4465;50.904;4.696;2023-05-16T09:09:06;15.50;99.90
8858;DHT22;4465;50.904;4.696;2023-05-16T09:11:35;15.40;99.90
8858;DHT22;4465;50.904;4.696;2023-05-16T09:14:01;15.40;99.90
8858;DHT22;4465;50.904;4.696;2023-05-16T09:16:27;15.30;99.90
8858;DHT22;4465;50.904;4.696;2023-05-16T09:18:54;15.20;99.90
8858;DHT22;4465;50.904;4.696;2023-05-16T09:21:25;15.20;99.90
8858;DHT22;4465;50.904;4.696;2023-05-16T09:23:51;15.20;99.90
8858;DHT22;4465;50.904;4.696;2023-05-16T09:26:17;15.30;99.90
8858;DHT22;4465;50.904;4.696;2023-05-16T09:28:43;15.30;99.90
8858;DHT22;4465;50.904;4.696;2023-05-16T09:31:22;15.30;99.90
8858;DHT22;4465;50.904;4.696;2023-05-16T09:33:57;15.30;99.90
8858;DHT22;4465;50.904;4.696;2023-05-16T09:36:23;15.30;99.90
8858;DHT22;4465;50.904;4.696;2023-05-16T09:38:50;15.30;99.90
8858;DHT22;4465;50.904;4.696;2023-05-16T09:41:20;15.30;99.90
8858;DHT22;4465;50.904;4.696;2023-05-16T09:43:47;15.40;99.90
8858;DHT22;4465;50.904;4.696;2023-05-16T09:46:13;15.40;99.90
8858;DHT22;4465;50.904;4.696;2023-05-16T09:48:50;15.50;99.90
8858;DHT22;4465;50.904;4.696;2023-05-16T09:51:21;15.40;99.90
8858;DHT22;4465;50.904;4.696;2023-05-16T09:53:47;15.40;99.90
8858;DHT22;4465;50.904;4.696;2023-05-16T09:56:14;15.40;99.90
8858;DHT22;4465;50.904;4.696;2023-05-16T09:58:42;15.50;99.90
8858;DHT22;4465;50.904;4.696;2023-05-16T10:01:09;15.50;99.90
8858;DHT22;4465;50.904;4.696;2023-05-16T10:03:37;15.60;99.90
8858;DHT22;4465;50.904;4.696;2023-05-16T10:06:04;15.60;99.90
8858;DHT22;4465;50.904;4.696;2023-05-16T10:08:32;15.50;99.90
8858;DHT22;4465;50.904;4.696;2023-05-16T10:11:03;15.40;99.90
8858;DHT22;4465;50.904;4.696;2023-05-16T10:13:31;15.30;99.90
8858;DHT22;4465;50.904;4.696;2023-05-16T10:15:58;15.30;99.90
8858;DHT22;4465;50.904;4.696;2023-05-16T10:18:31;15.30;99.90
8858;DHT22;4465;50.904;4.696;2023-05-16T10:21:04;15.20;99.90
8858;DHT22;4465;50.904;4.696;2023-05-16T10:23:32;15.30;99.90
8858;DHT22;4465;50.904;4.696;2023-05-16T10:26:03;15.30;99.90
8858;DHT22;4465;50.904;4.696;2023-05-16T10:28:30;15.40;99.90
8858;DHT22;4465;50.904;4.696;2023-05-16T10:30:57;15.50;99.90
8858;DHT22;4465;50.904;4.696;2023-05-16T10:33:26;15.60;99.90
8858;DHT22;4465;50.904;4.696;2023-05-16T10:35:52;15.80;99.90
8858;DHT22;4465;50.904;4.696;2023-05-16T10:38:18;15.90;99.90
8858;DHT22;4465;50.904;4.696;2023-05-16T10:40:46;16.00;99.90
8858;DHT22;4465;50.904;4.696;2023-05-16T10:43:25;16.20;99.90
8858;DHT22;4465;50.904;4.696;2023-05-16T10:46:01;16.20;99.90
8858;DHT22;4465;50.904;4.696;2023-05-16T10:48:29;16.40;99.90
8858;DHT22;4465;50.904;4.696;2023-05-16T10:50:55;16.50;99.90
8858;DHT22;4465;50.904;4.696;2023-05-16T11:01:22;17.20;99.90
8858;DHT22;4465;50.904;4.696;2023-05-16T11:06:25;17.20;99.90
8858;DHT22;4465;50.904;4.696;2023-05-16T11:12:02;16.80;99.90
8858;DHT22;4465;50.904;4.696;2023-05-16T11:14:36;16.90;99.90
8858;DHT22;4465;50.904;4.696;2023-05-16T11:19:56;16.80;99.90
8858;DHT22;4465;50.904;4.696;2023-05-16T11:22:29;17.00;99.90
8858;DHT22;4465;50.904;4.696;2023-05-16T11:25:02;17.40;99.90
8858;DHT22;4465;50.904;4.696;2023-05-16T11:27:30;17.80;99.90
8858;DHT22;4465;50.904;4.696;2023-05-16T11:32:39;18.10;99.90
8858;DHT22;4465;50.904;4.696;2023-05-16T11:35:08;18.00;99.90
8858;DHT22;4465;50.904;4.696;2023-05-16T11:37:37;17.70;99.90
8858;DHT22;4465;50.904;4.696;2023-05-16T11:40:08;17.60;99.90
8858;DHT22;4465;50.904;4.696;2023-05-16T11:42:41;17.90;99.90
8858;DHT22;4465;50.904;4.696;2023-05-16T11:45:08;18.30;99.90
8858;DHT22;4465;50.904;4.696;2023-05-16T11:47:38;18.60;99.90
8858;DHT22;4465;50.904;4.696;2023-05-16T11:50:10;19.00;99.90
8858;DHT22;4465;50.904;4.696;2023-05-16T11:52:37;19.50;99.90
8858;DHT22;4465;50.904;4.696;2023-05-16T11:55:07;20.10;99.90
8858;DHT22;4465;50.904;4.696;2023-05-16T11:57:38;20.60;99.90
8858;DHT22;4465;50.904;4.696;2023-05-16T12:00:04;20.70;99.90
8858;DHT22;4465;50.904;4.696;2023-05-16T12:02:38;20.40;99.90
8858;DHT22;4465;50.904;4.696;2023-05-16T12:05:08;20.10;99.90
8858;DHT22;4465;50.904;4.696;2023-05-16T12:07:37;19.80;99.90
8858;DHT22;4465;50.904;4.696;2023-05-16T12:10:07;19.60;99.90
8858;DHT22;4465;50.904;4.696;2023-05-16T12:12:34;19.20;99.90
8858;DHT22;4465;50.904;4.696;2023-05-16T12:15:05;18.90;99.90
8858;DHT22;4465;50.904;4.696;2023-05-16T12:17:35;18.80;99.90
8858;DHT22;4465;50.904;4.696;2023-05-16T12:20:05;18.70;99.90
8858;DHT22;4465;50.904;4.696;2023-05-16T12:22:34;18.60;99.90
8858;DHT22;4465;50.904;4.696;2023-05-16T12:27:59;18.40;99.90
8858;DHT22;4465;50.904;4.696;2023-05-16T12:30:27;18.20;99.90
8858;DHT22;4465;50.904;4.696;2023-05-16T12:33:07;18.10;99.90
8858;DHT22;4465;50.904;4.696;2023-05-16T12:35:36;18.00;99.90
8858;DHT22;4465;50.904;4.696;2023-05-16T12:38:06;17.90;99.90
8858;DHT22;4465;50.904;4.696;2023-05-16T12:40:35;17.80;99.90
8858;DHT22;4465;50.904;4.696;2023-05-16T12:43:01;17.80;99.90
8858;DHT22;4465;50.904;4.696;2023-05-16T12:45:27;17.80;99.90
8858;DHT22;4465;50.904;4.696;2023-05-16T12:47:53;17.80;99.90
8858;DHT22;4465;50.904;4.696;2023-05-16T12:50:19;17.80;99.90
8858;DHT22;4465;50.904;4.696;2023-05-16T12:52:52;17.70;99.90
8858;DHT22;4465;50.904;4.696;2023-05-16T12:55:19;17.60;99.90
8858;DHT22;4465;50.904;4.696;2023-05-16T12:57:46;17.50;99.90
8858;DHT22;4465;50.904;4.696;2023-05-16T13:00:17;17.40;99.90
8858;DHT22;4465;50.904;4.696;2023-05-16T13:02:46;17.40;99.90
8858;DHT22;4465;50.904;4.696;2023-05-16T13:05:13;17.40;99.90
8858;DHT22;4465;50.904;4.696;2023-05-16T13:07:39;17.40;99.90
8858;DHT22;4465;50.904;4.696;2023-05-16T13:10:10;17.40;99.90
8858;DHT22;4465;50.904;4.696;2023-05-16T13:12:39;17.40;99.90
8858;DHT22;4465;50.904;4.696;2023-05-16T13:15:07;17.50;99.90
8858;DHT22;4465;50.904;4.696;2023-05-16T13:17:37;17.60;99.90
8858;DHT22;4465;50.904;4.696;2023-05-16T13:20:06;17.80;99.90
8858;DHT22;4465;50.904;4.696;2023-05-16T13:22:40;18.10;99.90
8858;DHT22;4465;50.904;4.696;2023-05-16T13:25:07;18.30;99.90
8858;DHT22;4465;50.904;4.696;2023-05-16T13:27:33;18.30;99.90
8858;DHT22;4465;50.904;4.696;2023-05-16T13:29:59;18.20;99.90
8858;DHT22;4465;50.904;4.696;2023-05-16T13:32:25;18.10;99.90
8858;DHT22;4465;50.904;4.696;2023-05-16T13:34:51;18.00;99.90
8858;DHT22;4465;50.904;4.696;2023-05-16T13:37:18;18.00;99.90
8858;DHT22;4465;50.904;4.696;2023-05-16T13:39:49;18.00;99.90
8858;DHT22;4465;50.904;4.696;2023-05-16T13:42:15;18.10;99.90
8858;DHT22;4465;50.904;4.696;2023-05-16T13:44:41;18.10;99.90
8858;DHT22;4465;50.904;4.696;2023-05-16T13:47:09;18.20;99.90
8858;DHT22;4465;50.904;4.696;2023-05-16T13:49:36;18.30;99.90
8858;DHT22;4465;50.904;4.696;2023-05-16T13:52:02;18.20;99.90
8858;DHT22;4465;50.904;4.696;2023-05-16T13:54:30;18.20;99.90
8858;DHT22;4465;50.904;4.696;2023-05-16T13:56:56;18.20;99.90
8858;DHT22;4465;50.904;4.696;2023-05-16T13:59:22;18.20;99.90
8858;DHT22;4465;50.904;4.696;2023-05-16T14:01:48;18.20;99.90
8858;DHT22;4465;50.904;4.696;2023-05-16T14:04:15;18.10;99.90
8858;DHT22;4465;50.904;4.696;2023-05-16T14:06:45;18.00;99.90
8858;DHT22;4465;50.904;4.696;2023-05-16T14:09:13;18.00;99.90
8858;DHT22;4465;50.904;4.696;2023-05-16T14:11:39;17.90;99.90
8858;DHT22;4465;50.904;4.696;2023-05-16T14:14:05;17.80;99.90
8858;DHT22;4465;50.904;4.696;2023-05-16T14:16:31;17.80;99.90
8858;DHT22;4465;50.904;4.696;2023-05-16T14:18:58;17.80;99.90
8858;DHT22;4465;50.904;4.696;2023-05-16T14:21:26;17.70;99.90
8858;DHT22;4465;50.904;4.696;2023-05-16T14:23:52;17.60;99.90
8858;DHT22;4465;50.904;4.696;2023-05-16T14:26:17;17.50;99.90
8858;DHT22;4465;50.904;4.696;2023-05-16T14:28:50;17.40;99.90
8858;DHT22;4465;50.904;4.696;2023-05-16T14:31:16;17.30;99.90
8858;DHT22;4465;50.904;4.696;2023-05-16T14:33:44;17.10;99.90
8858;DHT22;4465;50.904;4.696;2023-05-16T14:36:10;17.00;99.90
8858;DHT22;4465;50.904;4.696;2023-05-16T14:38:36;16.80;99.90
8858;DHT22;4465;50.904;4.696;2023-05-16T14:41:02;16.70;99.90
8858;DHT22;4465;50.904;4.696;2023-05-16T14:43:30;16.60;99.90
8858;DHT22;4465;50.904;4.696;2023-05-16T14:45:56;16.50;99.90
8858;DHT22;4465;50.904;4.696;2023-05-16T14:48:22;16.50;99.90
8858;DHT22;4465;50.904;4.696;2023-05-16T14:50:48;16.40;99.90
8858;DHT22;4465;50.904;4.696;2023-05-16T14:53:14;16.40;99.90
8858;DHT22;4465;50.904;4.696;2023-05-16T14:55:40;16.40;99.90
8858;DHT22;4465;50.904;4.696;2023-05-16T14:58:06;16.40;99.90
8858;DHT22;4465;50.904;4.696;2023-05-16T15:00:34;16.30;99.90
8858;DHT22;4465;50.904;4.696;2023-05-16T15:03:00;16.30;99.90
8858;DHT22;4465;50.904;4.696;2023-05-16T15:05:26;16.20;99.90
8858;DHT22;4465;50.904;4.696;2023-05-16T15:07:56;16.20;99.90
8858;DHT22;4465;50.904;4.696;2023-05-16T15:10:24;16.20;99.90
8858;DHT22;4465;50.904;4.696;2023-05-16T15:12:52;16.10;99.90
8858;DHT22;4465;50.904;4.696;2023-05-16T15:15:20;16.10;99.90
8858;DHT22;4465;50.904;4.696;2023-05-16T15:17:46;16.00;99.90
8858;DHT22;4465;50.904;4.696;2023-05-16T15:20:17;16.00;99.90
8858;DHT22;4465;50.904;4.696;2023-05-16T15:22:43;16.00;99.90
8858;DHT22;4465;50.904;4.696;2023-05-16T15:25:09;16.00;99.90
8858;DHT22;4465;50.904;4.696;2023-05-16T15:27:35;16.00;99.90
8858;DHT22;4465;50.904;4.696;2023-05-16T15:30:01;16.00;99.90
8858;DHT22;4465;50.904;4.696;2023-05-16T15:32:30;16.00;99.90
8858;DHT22;4465;50.904;4.696;2023-05-16T15:34:56;15.90;99.90
8858;DHT22;4465;50.904;4.696;2023-05-16T15:37:27;15.90;99.90
8858;DHT22;4465;50.904;4.696;2023-05-16T15:39:53;15.80;99.90
8858;DHT22;4465;50.904;4.696;2023-05-16T15:42:19;15.80;99.90
8858;DHT22;4465;50.904;4.696;2023-05-16T15:44:46;15.80;99.90
8858;DHT22;4465;50.904;4.696;2023-05-16T15:47:14;15.70;99.90
8858;DHT22;4465;50.904;4.696;2023-05-16T15:49:43;15.70;99.90
8858;DHT22;4465;50.904;4.696;2023-05-16T15:52:09;15.60;99.90
8858;DHT22;4465;50.904;4.696;2023-05-16T15:54:35;15.60;99.90
8858;DHT22;4465;50.904;4.696;2023-05-16T15:57:03;15.60;99.90
8858;DHT22;4465;50.904;4.696;2023-05-16T15:59:29;15.60;99.90
8858;DHT22;4465;50.904;4.696;2023-05-16T16:01:55;15.50;99.90
8858;DHT22;4465;50.904;4.696;2023-05-16T16:04:23;15.50;99.90
8858;DHT22;4465;50.904;4.696;2023-05-16T16:06:49;15.40;99.90
8858;DHT22;4465;50.904;4.696;2023-05-16T16:09:18;15.40;99.90
8858;DHT22;4465;50.904;4.696;2023-05-16T16:11:46;15.40;99.90
8858;DHT22;4465;50.904;4.696;2023-05-16T16:14:12;15.40;99.90
8858;DHT22;4465;50.904;4.696;2023-05-16T16:16:40;15.40;99.90
8858;DHT22;4465;50.904;4.696;2023-05-16T16:19:06;15.40;99.90
8858;DHT22;4465;50.904;4.696;2023-05-16T16:21:33;15.30;99.90
8858;DHT22;4465;50.904;4.696;2023-05-16T16:23:59;15.30;99.90
8858;DHT22;4465;50.904;4.696;2023-05-16T16:26:25;15.30;99.90
8858;DHT22;4465;50.904;4.696;2023-05-16T16:28:51;15.30;99.90
8858;DHT22;4465;50.904;4.696;2023-05-16T16:31:17;15.30;99.90
8858;DHT22;4465;50.904;4.696;2023-05-16T16:33:43;15.40;99.90
8858;DHT22;4465;50.904;4.696;2023-05-16T16:36:16;15.40;99.90
8858;DHT22;4465;50.904;4.696;2023-05-16T16:38:42;15.40;99.90
8858;DHT22;4465;50.904;4.696;2023-05-16T16:41:10;15.40;99.90